createdAt,value
2023-03-17T00:01:13.911Z,8.24
2023-03-17T00:03:42.911Z,8.16
2023-03-17T00:06:19.141Z,8.23
2023-03-17T00:08:48.298Z,8.22
2023-03-17T00:11:17.308Z,8.09
2023-03-17T00:13:46.119Z,8.30
2023-03-17T00:16:25.470Z,8.27
2023-03-17T00:18:53.794Z,7.97
2023-03-17T00:21:28.289Z,8.23
2023-03-17T00:23:56.227Z,8.30
2023-03-17T00:26:24.209Z,8.28
2023-03-17T00:28:52.989Z,8.28
2023-03-17T00:31:22.403Z,8.20
2023-03-17T00:33:52.247Z,8.18
2023-03-17T00:36:21.456Z,8.25
2023-03-17T00:38:48.619Z,8.26
2023-03-17T00:41:15.274Z,8.22
2023-03-17T00:43:42.058Z,8.27
2023-03-17T00:46:23.711Z,8.27
2023-03-17T00:48:50.456Z,8.11
2023-03-17T00:51:17.389Z,8.21
2023-03-17T00:53:44.297Z,8.28
2023-03-17T00:56:14.597Z,8.30
2023-03-17T00:58:42.117Z,8.29
2023-03-17T01:01:09.220Z,8.12
2023-03-17T01:03:36.252Z,8.14
2023-03-17T01:06:05.078Z,8.34
2023-03-17T01:08:32.180Z,8.23
2023-03-17T01:10:59.536Z,8.33
2023-03-17T01:13:26.370Z,8.26
2023-03-17T01:15:53.230Z,8.11
2023-03-17T01:18:22.774Z,8.24
2023-03-17T01:20:51.139Z,8.34
2023-03-17T01:23:18.206Z,8.27
2023-03-17T01:25:45.501Z,8.26
2023-03-17T01:28:14.870Z,8.35
2023-03-17T01:30:41.531Z,8.23
2023-03-17T01:33:09.882Z,8.33
2023-03-17T01:35:38.304Z,8.04
2023-03-17T01:38:06.118Z,8.11
2023-03-17T01:40:35.947Z,8.21
2023-03-17T01:43:17.537Z,8.24
2023-03-17T01:46:21.255Z,8.30
2023-03-17T01:48:56.771Z,8.30
2023-03-17T01:51:36.617Z,8.27
2023-03-17T01:54:08.543Z,8.11
2023-03-17T01:56:37.994Z,8.29
2023-03-17T01:59:10.149Z,8.29
2023-03-17T02:01:43.574Z,8.03
2023-03-17T02:04:11.918Z,8.28
2023-03-17T02:06:55.113Z,8.28
2023-03-17T02:09:24.268Z,8.12
2023-03-17T02:11:51.080Z,8.09
2023-03-17T02:14:17.876Z,8.24
2023-03-17T02:16:47.774Z,8.16
2023-03-17T02:19:14.451Z,8.18
2023-03-17T02:21:45.287Z,8.13
2023-03-17T02:24:28.287Z,8.24
2023-03-17T02:27:00.440Z,8.23
2023-03-17T02:29:27.732Z,8.21
2023-03-17T02:31:54.765Z,8.03
2023-03-17T02:34:21.819Z,7.95
2023-03-17T02:36:48.522Z,8.04
2023-03-17T02:39:15.395Z,7.81
2023-03-17T02:41:42.496Z,8.09
2023-03-17T02:44:09.348Z,8.04
2023-03-17T02:46:36.299Z,7.95
2023-03-17T02:49:04.389Z,7.94
2023-03-17T02:51:31.023Z,7.95
2023-03-17T02:53:57.600Z,8.05
2023-03-17T02:56:24.299Z,7.81
2023-03-17T02:58:51.185Z,8.08
2023-03-17T03:01:18.307Z,7.97
2023-03-17T03:03:44.911Z,8.06
2023-03-17T03:06:11.656Z,8.07
2023-03-17T03:08:38.404Z,7.98
2023-03-17T03:11:05.143Z,8.03
2023-03-17T03:13:32.757Z,8.12
2023-03-17T03:16:00.185Z,8.04
2023-03-17T03:18:26.941Z,7.94
2023-03-17T03:20:53.703Z,8.14
2023-03-17T03:23:20.782Z,8.09
2023-03-17T03:25:47.498Z,8.12
2023-03-17T03:28:14.112Z,7.91
2023-03-17T03:30:41.663Z,8.05
2023-03-17T03:33:08.367Z,8.10
2023-03-17T03:35:35.363Z,8.06
2023-03-17T03:38:02.203Z,8.11
2023-03-17T03:40:28.992Z,7.96
2023-03-17T03:42:56.176Z,8.08
2023-03-17T03:45:23.018Z,7.93
2023-03-17T03:47:49.683Z,8.11
2023-03-17T03:50:16.785Z,8.12
2023-03-17T03:52:43.413Z,8.04
2023-03-17T03:55:10.525Z,8.15
2023-03-17T03:57:37.340Z,7.91
2023-03-17T04:00:05.207Z,8.11
2023-03-17T04:02:31.991Z,8.00
2023-03-17T04:04:58.687Z,7.94
2023-03-17T04:07:25.768Z,8.08
2023-03-17T04:09:52.340Z,7.97
2023-03-17T04:12:19.532Z,7.76
2023-03-17T04:14:46.174Z,7.94
2023-03-17T04:17:13.114Z,8.01
2023-03-17T04:19:40.108Z,8.04
2023-03-17T04:22:09.086Z,8.03
2023-03-17T04:24:35.819Z,7.91
2023-03-17T04:27:05.485Z,8.04
2023-03-17T04:29:32.654Z,7.99
2023-03-17T04:31:59.753Z,7.99
2023-03-17T04:34:27.323Z,7.69
2023-03-17T04:36:54.335Z,7.97
2023-03-17T04:39:21.020Z,8.01
2023-03-17T04:41:47.695Z,7.89
2023-03-17T04:44:14.378Z,8.03
2023-03-17T04:46:40.982Z,7.99
2023-03-17T04:49:08.473Z,8.03
2023-03-17T04:51:36.959Z,7.77
2023-03-17T04:54:03.849Z,7.89
2023-03-17T04:56:31.929Z,7.88
2023-03-17T04:58:58.911Z,7.96
2023-03-17T05:01:25.721Z,7.98
2023-03-17T05:03:52.655Z,7.91
2023-03-17T05:06:19.372Z,7.95
2023-03-17T05:08:46.085Z,7.93
2023-03-17T05:11:13.650Z,7.87
2023-03-17T05:13:43.488Z,7.73
2023-03-17T05:16:11.145Z,7.97
2023-03-17T05:18:38.403Z,7.82
2023-03-17T05:21:06.456Z,8.00
2023-03-17T05:23:34.015Z,8.01
2023-03-17T05:26:01.063Z,7.94
2023-03-17T05:28:27.941Z,7.96
2023-03-17T05:30:55.217Z,7.92
2023-03-17T05:33:22.204Z,8.00
2023-03-17T05:35:48.949Z,8.01
2023-03-17T05:38:16.124Z,8.06
2023-03-17T05:40:43.488Z,8.07
2023-03-17T05:43:10.620Z,8.05
2023-03-17T05:45:37.724Z,7.98
2023-03-17T05:48:04.905Z,7.98
2023-03-17T05:50:32.516Z,7.89
2023-03-17T05:52:59.411Z,7.85
2023-03-17T05:55:26.263Z,8.09
2023-03-17T05:57:52.978Z,7.90
2023-03-17T06:00:21.508Z,8.06
2023-03-17T06:02:48.403Z,8.13
2023-03-17T06:05:15.135Z,7.82
2023-03-17T06:07:52.844Z,8.00
2023-03-17T06:10:21.994Z,8.17
2023-03-17T06:12:48.620Z,8.20
2023-03-17T06:15:16.638Z,8.22
2023-03-17T06:17:43.635Z,8.27
2023-03-17T06:20:11.790Z,8.16
2023-03-17T06:22:46.311Z,8.31
2023-03-17T06:25:19.026Z,8.26
2023-03-17T06:27:45.640Z,8.37
2023-03-17T06:30:12.552Z,8.33
2023-03-17T06:32:40.255Z,8.30
2023-03-17T06:35:07.547Z,8.37
2023-03-17T06:37:35.154Z,8.42
2023-03-17T06:40:02.305Z,8.20
2023-03-17T06:42:28.953Z,8.35
2023-03-17T06:44:55.651Z,8.41
2023-03-17T06:47:25.486Z,8.31
2023-03-17T06:49:53.535Z,8.08
2023-03-17T06:52:20.225Z,8.39
2023-03-17T06:54:47.301Z,8.52
2023-03-17T06:57:13.998Z,8.55
2023-03-17T06:59:41.760Z,8.63
2023-03-17T07:02:11.657Z,8.62
2023-03-17T07:04:38.694Z,8.71
2023-03-17T07:07:06.176Z,8.56
2023-03-17T07:09:34.664Z,8.69
2023-03-17T07:12:05.176Z,8.46
2023-03-17T07:14:36.784Z,8.83
2023-03-17T07:17:06.130Z,8.87
2023-03-17T07:19:33.447Z,8.93
2023-03-17T07:22:00.246Z,8.93
2023-03-17T07:24:27.083Z,9.06
2023-03-17T07:26:53.742Z,8.95
2023-03-17T07:29:21.389Z,9.19
2023-03-17T07:31:48.398Z,9.11
2023-03-17T07:34:16.448Z,9.14
2023-03-17T07:36:43.310Z,9.34
2023-03-17T07:39:12.015Z,9.44
2023-03-17T07:41:38.998Z,9.57
2023-03-17T07:44:05.635Z,9.55
2023-03-17T07:46:32.394Z,9.67
2023-03-17T07:48:59.070Z,9.66
2023-03-17T07:51:28.248Z,9.70
2023-03-17T07:54:03.337Z,9.94
2023-03-17T07:56:31.446Z,9.88
2023-03-17T07:58:59.136Z,10.15
2023-03-17T08:01:29.084Z,10.16
2023-03-17T08:03:56.683Z,10.34
2023-03-17T08:06:27.548Z,10.38
2023-03-17T08:08:55.117Z,10.31
2023-03-17T08:11:23.474Z,10.37
2023-03-17T08:13:51.066Z,10.39
2023-03-17T08:16:17.841Z,10.36
2023-03-17T08:18:44.806Z,10.26
2023-03-17T08:21:12.294Z,10.36
2023-03-17T08:23:39.688Z,10.43
2023-03-17T08:26:06.567Z,10.38
2023-03-17T08:28:33.183Z,10.39
2023-03-17T08:31:15.331Z,10.41
2023-03-17T08:33:43.131Z,10.29
2023-03-17T08:36:11.464Z,10.45
2023-03-17T08:38:40.204Z,10.33
2023-03-17T08:41:10.827Z,10.48
2023-03-17T08:43:37.462Z,10.47
2023-03-17T08:46:13.100Z,10.51
2023-03-17T08:48:39.906Z,10.58
2023-03-17T08:51:06.950Z,10.51
2023-03-17T08:53:35.223Z,10.73
2023-03-17T08:56:04.688Z,10.83
2023-03-17T08:58:31.544Z,10.86
2023-03-17T09:01:03.765Z,10.81
2023-03-17T09:03:31.241Z,11.14
2023-03-17T09:05:58.174Z,11.12
2023-03-17T09:08:25.346Z,11.40
2023-03-17T09:10:53.173Z,11.51
2023-03-17T09:13:20.878Z,11.63
2023-03-17T09:15:51.250Z,11.79
2023-03-17T09:18:21.394Z,11.86
2023-03-17T09:20:48.814Z,11.80
2023-03-17T09:23:16.101Z,11.85
2023-03-17T09:25:43.117Z,11.89
2023-03-17T09:28:12.193Z,11.92
2023-03-17T09:30:43.003Z,11.92
2023-03-17T09:33:12.022Z,11.89
2023-03-17T09:35:39.988Z,12.10
2023-03-17T09:38:08.317Z,12.13
2023-03-17T09:40:47.978Z,12.32
2023-03-17T09:43:31.974Z,12.41
2023-03-17T09:46:14.252Z,12.47
2023-03-17T09:49:01.703Z,12.57
2023-03-17T09:51:30.029Z,12.46
2023-03-17T09:54:02.445Z,12.87
2023-03-17T09:56:34.843Z,12.76
2023-03-17T09:59:32.228Z,13.20
2023-03-17T10:01:59.188Z,13.26
2023-03-17T10:04:25.910Z,13.33
2023-03-17T10:07:01.712Z,13.31
2023-03-17T10:09:41.898Z,13.47
2023-03-17T10:12:12.572Z,13.52
2023-03-17T10:14:54.513Z,13.61
2023-03-17T10:17:29.889Z,13.72
2023-03-17T10:20:08.810Z,13.80
2023-03-17T10:22:48.472Z,13.84
2023-03-17T10:25:23.713Z,13.87
2023-03-17T10:27:58.223Z,13.97
2023-03-17T10:30:25.978Z,13.80
2023-03-17T10:32:53.947Z,14.15
2023-03-17T10:35:23.534Z,14.06
2023-03-17T10:37:51.118Z,14.24
2023-03-17T10:40:28.642Z,14.10
2023-03-17T10:43:03.823Z,14.18
2023-03-17T10:45:39.093Z,14.30
2023-03-17T10:48:17.418Z,14.46
2023-03-17T10:50:48.655Z,14.47
2023-03-17T10:53:30.315Z,14.55
2023-03-17T10:56:07.274Z,14.60
2023-03-17T10:59:05.053Z,14.68
2023-03-17T11:01:47.404Z,14.75
2023-03-17T11:04:27.526Z,14.73
2023-03-17T11:06:58.376Z,14.76
2023-03-17T11:09:29.210Z,14.81
2023-03-17T11:12:36.692Z,14.86
2023-03-17T11:15:17.734Z,14.91
2023-03-17T11:17:58.978Z,14.91
2023-03-17T11:20:40.900Z,15.12
2023-03-17T11:23:19.500Z,15.28
2023-03-17T11:25:49.802Z,15.38
2023-03-17T11:28:21.949Z,15.45
2023-03-17T11:31:18.916Z,15.67
2023-03-17T11:34:02.510Z,15.67
2023-03-17T11:36:44.720Z,15.74
2023-03-17T11:39:23.915Z,15.75
2023-03-17T11:42:08.626Z,15.77
2023-03-17T11:45:13.348Z,15.76
2023-03-17T11:48:15.252Z,15.75
2023-03-17T11:50:44.317Z,15.75
2023-03-17T11:53:25.664Z,15.77
2023-03-17T11:55:58.067Z,15.80
2023-03-17T11:58:46.778Z,15.88
2023-03-17T12:01:19.600Z,15.92
2023-03-17T12:04:18.435Z,15.96
2023-03-17T12:06:52.051Z,15.90
2023-03-17T12:09:25.893Z,16.03
2023-03-17T12:11:55.855Z,16.07
2023-03-17T12:14:30.759Z,16.17
2023-03-17T12:17:17.180Z,16.16
2023-03-17T12:20:12.522Z,16.06
2023-03-17T12:23:06.997Z,15.96
2023-03-17T12:25:42.580Z,16.07
2023-03-17T12:28:17.875Z,15.77
2023-03-17T12:30:56.059Z,15.85
2023-03-17T12:33:36.834Z,15.99
2023-03-17T12:36:05.432Z,16.08
2023-03-17T12:38:43.289Z,16.14
2023-03-17T12:41:13.217Z,16.18
2023-03-17T12:43:48.415Z,16.14
2023-03-17T12:46:41.890Z,16.09
2023-03-17T12:49:36.247Z,16.08
2023-03-17T12:52:15.440Z,16.03
2023-03-17T12:54:46.540Z,16.15
2023-03-17T12:57:14.859Z,16.31
2023-03-17T12:59:48.438Z,16.35
2023-03-17T13:02:46.025Z,16.31
2023-03-17T13:05:17.598Z,16.45
2023-03-17T13:11:42.375Z,16.27
2023-03-17T13:14:24.572Z,16.69
2023-03-17T13:16:51.800Z,16.63
2023-03-17T13:19:22.873Z,16.82
2023-03-17T13:22:04.826Z,16.87
2023-03-17T13:24:47.423Z,16.85
2023-03-17T13:27:32.527Z,16.89
2023-03-17T13:30:21.797Z,16.86
2023-03-17T13:33:04.388Z,16.78
2023-03-17T13:35:45.601Z,16.48
2023-03-17T13:38:33.195Z,16.60
2023-03-17T13:41:08.752Z,16.56
2023-03-17T13:43:54.275Z,16.54
2023-03-17T13:46:44.123Z,16.51
2023-03-17T13:49:20.007Z,16.48
2023-03-17T13:52:00.348Z,16.44
2023-03-17T13:54:28.170Z,16.39
2023-03-17T13:56:59.298Z,16.42
2023-03-17T13:59:53.251Z,16.41
2023-03-17T14:02:23.811Z,16.46
2023-03-17T14:04:53.460Z,16.49
2023-03-17T14:07:24.216Z,16.49
2023-03-17T14:09:57.398Z,16.57
2023-03-17T14:12:38.425Z,16.57
2023-03-17T14:15:23.963Z,16.63
2023-03-17T14:17:57.578Z,16.63
2023-03-17T14:20:27.467Z,16.59
2023-03-17T14:22:57.395Z,16.60
2023-03-17T14:25:28.784Z,16.57
2023-03-17T14:27:57.920Z,16.45
2023-03-17T14:30:26.824Z,16.34
2023-03-17T14:33:13.998Z,16.27
2023-03-17T14:35:43.334Z,16.36
2023-03-17T14:38:19.171Z,16.34
2023-03-17T14:40:46.141Z,16.24
2023-03-17T14:43:13.699Z,16.27
2023-03-17T14:45:48.102Z,16.23
2023-03-17T14:48:17.494Z,16.23
2023-03-17T14:50:56.487Z,16.04
2023-03-17T14:53:24.740Z,16.21
2023-03-17T14:55:53.576Z,16.15
2023-03-17T14:58:36.756Z,16.24
2023-03-17T15:01:03.681Z,16.26
2023-03-17T15:03:33.174Z,16.23
2023-03-17T15:06:07.725Z,16.14
2023-03-17T15:08:43.550Z,16.25
2023-03-17T15:11:22.335Z,16.04
2023-03-17T15:13:50.542Z,16.16
2023-03-17T15:16:24.681Z,15.84
2023-03-17T15:19:01.927Z,16.10
2023-03-17T15:21:34.695Z,16.02
2023-03-17T15:24:23.437Z,15.92
2023-03-17T15:26:50.304Z,16.00
2023-03-17T15:29:17.089Z,15.87
2023-03-17T15:31:43.759Z,15.91
2023-03-17T15:34:15.173Z,15.85
2023-03-17T15:36:43.537Z,15.83
2023-03-17T15:39:10.531Z,15.75
2023-03-17T15:41:37.305Z,15.61
2023-03-17T15:44:05.237Z,15.67
2023-03-17T15:46:34.137Z,15.63
2023-03-17T15:49:01.333Z,15.77
2023-03-17T15:51:28.045Z,15.71
2023-03-17T15:53:54.653Z,15.65
2023-03-17T15:56:22.125Z,15.71
2023-03-17T15:58:52.272Z,15.63
2023-03-17T16:01:20.142Z,15.35
2023-03-17T16:03:48.102Z,15.49
2023-03-17T16:06:22.121Z,15.66
2023-03-17T16:08:50.352Z,15.53
2023-03-17T16:11:27.884Z,15.65
2023-03-17T16:13:56.585Z,15.63
2023-03-17T16:16:31.897Z,15.60
2023-03-17T16:18:59.278Z,15.48
2023-03-17T16:21:26.421Z,15.27
2023-03-17T16:23:54.035Z,15.39
2023-03-17T16:26:21.104Z,15.29
2023-03-17T16:28:49.139Z,15.25
2023-03-17T16:31:30.312Z,15.21
2023-03-17T16:33:57.286Z,15.34
2023-03-17T16:36:25.552Z,15.18
2023-03-17T16:38:52.402Z,15.14
2023-03-17T16:41:24.542Z,15.17
2023-03-17T16:43:57.659Z,15.22
2023-03-17T16:46:27.082Z,15.16
2023-03-17T16:48:53.842Z,14.69
2023-03-17T16:51:20.740Z,15.00
2023-03-17T16:53:47.424Z,14.99
2023-03-17T16:56:18.270Z,15.00
2023-03-17T16:58:46.262Z,14.83
2023-03-17T17:01:25.104Z,14.73
2023-03-17T17:03:52.215Z,14.76
2023-03-17T17:06:20.376Z,14.65
2023-03-17T17:08:48.173Z,14.78
2023-03-17T17:11:16.902Z,14.60
2023-03-17T17:13:46.282Z,14.69
2023-03-17T17:16:33.071Z,14.44
2023-03-17T17:19:00.380Z,14.57
2023-03-17T17:21:27.866Z,14.60
2023-03-17T17:23:55.666Z,14.42
2023-03-17T17:26:23.019Z,14.31
2023-03-17T17:28:49.929Z,14.46
2023-03-17T17:31:16.925Z,14.27
2023-03-17T17:33:43.601Z,14.37
2023-03-17T17:36:15.729Z,14.28
2023-03-17T17:38:43.154Z,14.03
2023-03-17T17:41:11.926Z,14.22
2023-03-17T17:43:39.240Z,14.00
2023-03-17T17:46:15.485Z,14.16
2023-03-17T17:48:42.294Z,13.91
2023-03-17T17:51:09.029Z,14.16
2023-03-17T17:53:35.906Z,14.10
2023-03-17T17:56:02.847Z,14.09
2023-03-17T17:58:29.437Z,14.07
2023-03-17T18:00:57.519Z,13.86
2023-03-17T18:03:26.383Z,13.88
2023-03-17T18:05:55.408Z,13.92
2023-03-17T18:08:23.878Z,13.95
2023-03-17T18:10:52.209Z,13.62
2023-03-17T18:13:19.272Z,13.63
2023-03-17T18:15:46.154Z,13.75
2023-03-17T18:18:12.891Z,13.61
2023-03-17T18:20:39.738Z,13.51
2023-03-17T18:23:06.791Z,13.53
2023-03-17T18:25:34.055Z,13.67
2023-03-17T18:28:01.509Z,13.53
2023-03-17T18:30:31.798Z,13.61
2023-03-17T18:33:04.508Z,13.55
2023-03-17T18:35:31.585Z,13.36
2023-03-17T18:37:58.521Z,13.31
2023-03-17T18:40:26.532Z,13.22
2023-03-17T18:42:53.308Z,13.21
2023-03-17T18:45:20.018Z,13.01
2023-03-17T18:47:47.069Z,13.14
2023-03-17T18:50:15.578Z,13.27
2023-03-17T18:52:43.787Z,13.25
2023-03-17T18:55:12.308Z,13.10
2023-03-17T18:57:39.285Z,13.09
2023-03-17T19:00:08.587Z,13.18
2023-03-17T19:02:36.315Z,13.01
2023-03-17T19:05:03.685Z,12.97
2023-03-17T19:07:30.767Z,13.04
2023-03-17T19:09:57.674Z,12.81
2023-03-17T19:12:24.760Z,12.89
2023-03-17T19:14:52.243Z,12.29
2023-03-17T19:17:19.011Z,12.76
2023-03-17T19:19:46.992Z,12.90
2023-03-17T19:22:14.167Z,12.83
2023-03-17T19:24:41.237Z,12.65
2023-03-17T19:27:07.971Z,12.68
2023-03-17T19:29:34.737Z,12.80
2023-03-17T19:32:02.340Z,12.73
2023-03-17T19:34:29.238Z,12.76
2023-03-17T19:36:56.207Z,12.60
2023-03-17T19:39:23.180Z,12.66
2023-03-17T19:41:53.300Z,12.68
2023-03-17T19:44:19.918Z,12.65
2023-03-17T19:46:46.729Z,12.63
2023-03-17T19:49:13.545Z,12.50
2023-03-17T19:51:42.008Z,12.66
2023-03-17T19:54:09.975Z,12.74
2023-03-17T19:56:38.401Z,12.73
2023-03-17T19:59:09.113Z,12.63
2023-03-17T20:01:37.868Z,12.64
2023-03-17T20:04:06.865Z,12.59
2023-03-17T20:06:34.765Z,12.35
2023-03-17T20:09:04.301Z,12.38
2023-03-17T20:11:33.972Z,12.57
2023-03-17T20:14:02.263Z,12.53
2023-03-17T20:16:31.942Z,12.49
2023-03-17T20:18:58.568Z,12.39
2023-03-17T20:21:25.519Z,12.30
2023-03-17T20:23:52.577Z,12.28
2023-03-17T20:26:20.057Z,12.15
2023-03-17T20:28:47.486Z,12.38
2023-03-17T20:31:14.378Z,12.37
2023-03-17T20:33:41.422Z,12.15
2023-03-17T20:36:08.497Z,12.15
2023-03-17T20:38:38.846Z,12.26
2023-03-17T20:41:11.307Z,12.30
2023-03-17T20:43:38.836Z,12.21
2023-03-17T20:46:08.571Z,12.20
2023-03-17T20:48:37.331Z,12.24
2023-03-17T20:51:06.155Z,12.23
2023-03-17T20:53:36.237Z,12.17
2023-03-17T20:56:03.086Z,12.15
2023-03-17T20:58:30.491Z,12.18
2023-03-17T21:00:58.516Z,12.09
2023-03-17T21:03:25.400Z,12.23
2023-03-17T21:05:53.413Z,12.20
2023-03-17T21:08:20.091Z,12.10
2023-03-17T21:10:46.807Z,11.98
2023-03-17T21:13:13.679Z,11.99
2023-03-17T21:15:41.216Z,12.15
2023-03-17T21:18:08.003Z,12.18
2023-03-17T21:20:34.735Z,12.01
2023-03-17T21:23:04.512Z,12.06
2023-03-17T21:25:31.291Z,12.14
2023-03-17T21:27:58.057Z,12.10
2023-03-17T21:30:24.689Z,12.10
2023-03-17T21:32:51.350Z,12.14
2023-03-17T21:35:18.184Z,12.11
2023-03-17T21:37:44.941Z,11.94
2023-03-17T21:40:15.697Z,12.02
2023-03-17T21:42:42.354Z,12.00
2023-03-17T21:45:09.329Z,11.91
2023-03-17T21:47:41.076Z,11.90
2023-03-17T21:50:08.565Z,11.89
2023-03-17T21:52:35.227Z,11.87
2023-03-17T21:55:01.971Z,11.87
2023-03-17T21:57:29.727Z,11.88
2023-03-17T21:59:56.350Z,11.87
2023-03-17T22:02:23.580Z,11.87
2023-03-17T22:04:50.332Z,11.78
2023-03-17T22:07:17.856Z,11.85
2023-03-17T22:09:44.951Z,11.51
2023-03-17T22:12:12.232Z,11.82
2023-03-17T22:14:38.871Z,11.76
2023-03-17T22:17:05.622Z,11.73
2023-03-17T22:19:32.457Z,11.68
2023-03-17T22:21:59.284Z,11.74
2023-03-17T22:24:26.138Z,11.74
2023-03-17T22:26:52.786Z,11.67
2023-03-17T22:29:19.940Z,11.73
2023-03-17T22:31:47.119Z,11.64
2023-03-17T22:34:13.959Z,11.71
2023-03-17T22:36:41.152Z,11.72
2023-03-17T22:39:10.955Z,11.76
2023-03-17T22:41:38.949Z,11.84
2023-03-17T22:44:08.345Z,11.79
2023-03-17T22:46:36.603Z,11.87
2023-03-17T22:49:03.745Z,11.80
2023-03-17T22:51:30.524Z,11.82
2023-03-17T22:53:57.777Z,11.81
2023-03-17T22:56:25.117Z,11.91
2023-03-17T22:58:52.337Z,11.82
2023-03-17T23:01:20.372Z,11.90
2023-03-17T23:03:47.258Z,11.56
2023-03-17T23:06:14.626Z,11.92
2023-03-17T23:08:43.332Z,11.95
2023-03-17T23:11:18.298Z,11.95
2023-03-17T23:13:47.342Z,11.64
2023-03-17T23:16:14.824Z,12.05
2023-03-17T23:18:44.078Z,12.07
2023-03-17T23:21:18.633Z,12.05
2023-03-17T23:23:45.484Z,11.92
2023-03-17T23:26:12.102Z,12.06
2023-03-17T23:28:38.917Z,11.96
2023-03-17T23:31:05.722Z,12.02
2023-03-17T23:33:32.733Z,12.15
2023-03-17T23:35:59.534Z,12.12
2023-03-17T23:38:26.418Z,12.11
2023-03-17T23:40:56.759Z,12.21
2023-03-17T23:43:23.875Z,12.16
2023-03-17T23:45:53.073Z,12.24
2023-03-17T23:48:20.738Z,12.18
2023-03-17T23:50:50.710Z,12.12
2023-03-17T23:53:17.979Z,12.17
2023-03-17T23:55:45.296Z,12.15
2023-03-17T23:58:12.454Z,12.22
